createdAt,value
2022-08-19T00:00:45.017Z,101689.34
2022-08-19T00:03:11.483Z,101694.84
2022-08-19T00:05:38.124Z,101688.00
2022-08-19T00:08:04.574Z,101699.38
2022-08-19T00:10:31.112Z,101695.19
2022-08-19T00:12:57.527Z,101686.19
2022-08-19T00:15:24.065Z,101681.75
2022-08-19T00:17:50.625Z,101687.28
2022-08-19T00:20:20.549Z,101676.53
2022-08-19T00:22:48.032Z,101681.97
2022-08-19T00:25:15.765Z,101676.69
2022-08-19T00:27:42.481Z,101672.25
2022-08-19T00:30:09.758Z,101669.66
2022-08-19T00:32:36.268Z,101662.66
2022-08-19T00:35:02.792Z,101658.47
2022-08-19T00:37:29.349Z,101656.78
2022-08-19T00:39:56.012Z,101657.91
2022-08-19T00:42:23.243Z,101654.28
2022-08-19T00:44:50.061Z,101648.97
2022-08-19T00:47:16.543Z,101643.72
2022-08-19T00:49:48.427Z,101641.94
2022-08-19T00:52:19.441Z,101637.28
2022-08-19T00:54:50.770Z,101645.66
2022-08-19T00:57:27.685Z,101641.41
2022-08-19T01:00:02.704Z,101644.31
2022-08-19T01:02:30.858Z,101637.03
2022-08-19T01:04:57.501Z,101643.28
2022-08-19T01:07:24.123Z,101643.50
2022-08-19T01:09:50.616Z,101640.84
2022-08-19T01:12:18.564Z,101646.28
2022-08-19T01:14:46.324Z,101641.03
2022-08-19T01:17:13.454Z,101635.91
2022-08-19T01:19:44.858Z,101636.88
2022-08-19T01:22:27.353Z,101639.50
2022-08-19T01:24:57.527Z,101627.06
2022-08-19T01:27:25.939Z,101627.06
2022-08-19T01:29:52.363Z,101626.38
2022-08-19T01:32:32.208Z,101627.28
2022-08-19T01:35:01.683Z,101623.53
2022-08-19T01:37:28.471Z,101635.91
2022-08-19T01:39:55.053Z,101636.97
2022-08-19T01:42:21.538Z,101639.50
2022-08-19T01:44:56.773Z,101638.88
2022-08-19T01:47:23.228Z,101634.47
2022-08-19T01:49:49.640Z,101636.28
2022-08-19T01:52:16.128Z,101632.84
2022-08-19T01:54:42.603Z,101623.53
2022-08-19T01:57:13.461Z,101627.59
2022-08-19T01:59:42.104Z,101629.75
2022-08-19T02:02:08.595Z,101628.28
2022-08-19T02:04:36.325Z,101631.00
2022-08-19T02:07:02.785Z,101639.13
2022-08-19T02:09:29.448Z,101630.13
2022-08-19T02:11:56.034Z,101627.06
2022-08-19T02:14:22.560Z,101620.91
2022-08-19T02:16:49.099Z,101627.25
2022-08-19T02:19:15.535Z,101620.78
2022-08-19T02:21:42.094Z,101626.06
2022-08-19T02:24:08.606Z,101626.38
2022-08-19T02:26:35.055Z,101626.91
2022-08-19T02:29:01.581Z,101630.19
2022-08-19T02:31:28.501Z,101621.38
2022-08-19T02:33:56.871Z,101620.47
2022-08-19T02:36:25.245Z,101619.41
2022-08-19T02:38:54.288Z,101614.25
2022-08-19T02:41:28.240Z,101618.94
2022-08-19T02:44:29.465Z,101625.22
2022-08-19T02:46:43.575Z,101625.31
2022-08-19T02:49:10.047Z,101631.56
2022-08-19T02:51:44.886Z,101628.06
2022-08-19T02:54:12.542Z,101617.66
2022-08-19T02:56:41.797Z,101617.75
2022-08-19T02:59:08.337Z,101617.72
2022-08-19T03:01:36.969Z,101611.72
2022-08-19T03:04:05.637Z,101614.06
2022-08-19T03:06:32.361Z,101612.91
2022-08-19T03:08:59.209Z,101597.97
2022-08-19T03:11:31.359Z,101588.38
2022-08-19T03:13:59.771Z,101584.69
2022-08-19T03:16:28.442Z,101585.59
2022-08-19T03:18:57.474Z,101572.63
2022-08-19T03:21:25.857Z,101567.88
2022-08-19T03:23:56.240Z,101564.84
2022-08-19T03:26:22.706Z,101569.47
2022-08-19T03:28:51.129Z,101568.66
2022-08-19T03:31:44.901Z,101573.41
2022-08-19T03:34:20.883Z,101573.41
2022-08-19T03:36:48.391Z,101569.03
2022-08-19T03:39:15.710Z,101576.22
2022-08-19T03:41:46.044Z,101583.22
2022-08-19T03:44:20.159Z,101580.50
2022-08-19T03:46:51.245Z,101566.66
2022-08-19T03:49:18.742Z,101572.75
2022-08-19T03:51:47.825Z,101567.69
2022-08-19T03:54:17.785Z,101569.31
2022-08-19T03:56:45.610Z,101570.25
2022-08-19T03:59:15.962Z,101590.59
2022-08-19T04:01:42.659Z,101584.53
2022-08-19T04:04:09.839Z,101576.69
2022-08-19T04:06:39.884Z,101573.25
2022-08-19T04:09:09.495Z,101564.50
2022-08-19T04:11:43.700Z,101564.50
2022-08-19T04:14:12.970Z,101558.53
2022-08-19T04:16:39.553Z,101558.44
2022-08-19T04:19:07.966Z,101548.03
2022-08-19T04:21:35.505Z,101534.84
2022-08-19T04:24:03.825Z,101530.91
2022-08-19T04:26:33.843Z,101536.31
2022-08-19T04:29:02.365Z,101531.97
2022-08-19T04:31:31.530Z,101532.16
2022-08-19T04:34:00.085Z,101525.72
2022-08-19T04:36:29.993Z,101527.34
2022-08-19T04:38:58.597Z,101518.06
2022-08-19T04:41:26.412Z,101517.09
2022-08-19T04:43:52.807Z,101514.63
2022-08-19T04:46:39.274Z,101516.09
2022-08-19T04:49:10.456Z,101511.47
2022-08-19T04:51:42.725Z,101510.16
2022-08-19T04:54:09.498Z,101511.53
2022-08-19T04:56:36.065Z,101511.34
2022-08-19T04:59:02.613Z,101513.72
2022-08-19T05:01:30.247Z,101510.09
2022-08-19T05:03:58.753Z,101505.25
2022-08-19T05:06:25.285Z,101495.53
2022-08-19T05:08:52.340Z,101495.97
2022-08-19T05:11:26.429Z,101487.00
2022-08-19T05:13:53.485Z,101488.41
2022-08-19T05:16:21.603Z,101494.31
2022-08-19T05:18:49.332Z,101492.31
2022-08-19T05:21:19.449Z,101490.22
2022-08-19T05:23:45.863Z,101485.44
2022-08-19T05:26:12.321Z,101489.25
2022-08-19T05:28:38.819Z,101480.13
2022-08-19T05:31:05.597Z,101479.63
2022-08-19T05:33:32.056Z,101481.53
2022-08-19T05:35:58.524Z,101476.44
2022-08-19T05:38:25.094Z,101464.00
2022-08-19T05:40:51.527Z,101425.78
2022-08-19T05:43:18.044Z,101413.41
2022-08-19T05:45:44.719Z,101397.06
2022-08-19T05:48:12.379Z,101398.25
2022-08-19T05:50:42.423Z,101417.56
2022-08-19T05:53:09.684Z,101453.97
2022-08-19T05:55:36.833Z,101514.41
2022-08-19T05:58:03.716Z,101554.91
2022-08-19T06:00:30.201Z,101583.03
2022-08-19T06:02:56.832Z,101572.00
2022-08-19T06:05:23.320Z,101561.75
2022-08-19T06:07:49.799Z,101564.22
2022-08-19T06:10:16.246Z,101579.44
2022-08-19T06:12:42.768Z,101560.53
2022-08-19T06:15:13.011Z,101543.47
2022-08-19T06:17:40.011Z,101526.63
2022-08-19T06:20:09.196Z,101522.25
2022-08-19T06:22:46.464Z,101553.50
2022-08-19T06:25:14.460Z,101538.41
2022-08-19T06:27:58.523Z,101555.22
2022-08-19T06:30:27.803Z,101638.25
2022-08-19T06:32:54.433Z,101701.25
2022-08-19T06:35:20.984Z,101705.22
2022-08-19T06:37:47.462Z,101739.75
2022-08-19T06:40:14.088Z,101663.59
2022-08-19T06:42:44.829Z,101679.59
2022-08-19T06:45:25.180Z,101665.19
2022-08-19T06:48:00.764Z,101598.50
2022-08-19T06:50:28.101Z,101560.06
2022-08-19T06:52:54.628Z,101586.94
2022-08-19T06:55:21.373Z,101653.28
2022-08-19T06:57:47.946Z,101763.13
2022-08-19T07:00:14.800Z,101732.66
2022-08-19T07:02:48.070Z,101752.25
2022-08-19T07:05:19.763Z,101830.38
2022-08-19T07:07:47.663Z,101901.69
2022-08-19T07:10:14.429Z,101928.53
2022-08-19T07:12:41.048Z,101896.34
2022-08-19T07:15:08.521Z,101862.63
2022-08-19T07:17:35.362Z,101712.00
2022-08-19T07:20:05.421Z,101645.84
2022-08-19T07:22:40.963Z,101763.59
2022-08-19T07:25:09.682Z,101742.03
2022-08-19T07:27:37.423Z,101783.03
2022-08-19T07:30:07.047Z,101850.03
2022-08-19T07:32:37.933Z,101842.44
2022-08-19T07:35:04.813Z,101852.25
2022-08-19T07:37:33.376Z,101656.31
2022-08-19T07:40:01.996Z,101707.91
2022-08-19T07:42:28.839Z,101678.72
2022-08-19T07:44:55.318Z,101659.22
2022-08-19T07:47:58.354Z,101707.38
2022-08-19T07:50:11.223Z,101611.41
2022-08-19T07:52:38.267Z,101487.59
2022-08-19T07:55:06.603Z,101359.63
2022-08-19T07:57:53.048Z,101551.16
2022-08-19T08:00:23.157Z,101407.16
2022-08-19T08:02:51.738Z,101297.88
2022-08-19T08:05:19.640Z,101171.72
2022-08-19T08:07:46.323Z,101202.75
2022-08-19T08:10:21.069Z,101356.97
2022-08-19T08:12:58.368Z,101545.72
2022-08-19T08:15:38.705Z,101610.81
2022-08-19T08:18:08.640Z,101858.06
2022-08-19T08:20:35.853Z,102023.53
2022-08-19T08:23:02.340Z,102212.38
2022-08-19T08:25:28.968Z,102162.34
2022-08-19T08:27:59.190Z,102045.19
2022-08-19T08:30:27.464Z,101752.34
2022-08-19T08:32:59.672Z,101430.69
2022-08-19T08:35:26.330Z,101566.66
2022-08-19T08:37:55.184Z,101452.88
2022-08-19T08:40:40.459Z,101327.13
2022-08-19T08:43:35.243Z,101404.41
2022-08-19T08:46:17.630Z,101606.88
2022-08-19T08:49:12.863Z,101908.81
2022-08-19T08:51:47.910Z,102144.41
2022-08-19T08:54:20.492Z,102077.16
2022-08-19T08:56:50.153Z,102021.22
2022-08-19T08:59:37.814Z,102087.91
2022-08-19T09:02:04.923Z,102246.16
2022-08-19T09:04:31.582Z,102367.69
2022-08-19T09:07:03.655Z,102358.44
2022-08-19T09:09:52.437Z,102316.53
2022-08-19T09:12:50.284Z,101727.44
2022-08-19T09:15:22.065Z,101290.34
2022-08-19T09:18:04.385Z,101424.44
2022-08-19T09:20:33.748Z,101430.38
2022-08-19T09:23:00.185Z,101466.69
2022-08-19T09:25:29.735Z,101885.63
2022-08-19T09:28:02.428Z,102012.31
2022-08-19T09:30:32.813Z,102114.97
2022-08-19T09:32:59.396Z,102086.06
2022-08-19T09:35:28.977Z,102401.91
2022-08-19T09:37:57.565Z,102396.38
2022-08-19T09:40:30.028Z,102472.31
2022-08-19T09:42:57.869Z,102523.94
2022-08-19T09:45:24.809Z,102471.91
2022-08-19T09:47:54.126Z,101962.50
2022-08-19T09:50:22.584Z,101351.06
2022-08-19T09:52:55.185Z,101106.41
2022-08-19T09:55:31.911Z,101011.59
2022-08-19T09:58:00.873Z,101123.09
2022-08-19T10:00:27.480Z,101300.00
2022-08-19T10:02:53.896Z,101872.34
2022-08-19T10:05:23.227Z,102320.19
2022-08-19T10:07:53.459Z,102592.75
2022-08-19T10:10:20.047Z,102290.09
2022-08-19T10:12:46.585Z,101735.72
2022-08-19T10:15:15.409Z,101388.19
2022-08-19T10:17:47.576Z,101493.06
2022-08-19T10:20:21.400Z,101383.13
2022-08-19T10:22:47.851Z,101554.22
2022-08-19T10:25:22.197Z,102113.56
2022-08-19T10:27:51.294Z,102014.59
2022-08-19T10:30:18.356Z,101550.75
2022-08-19T10:32:47.266Z,101892.00
2022-08-19T10:35:21.690Z,102212.97
2022-08-19T10:37:56.702Z,102517.84
2022-08-19T10:40:24.416Z,102461.19
2022-08-19T10:42:51.050Z,102462.25
2022-08-19T10:45:17.609Z,102482.25
2022-08-19T10:47:44.084Z,102205.78
2022-08-19T10:50:12.036Z,101953.03
2022-08-19T10:52:49.540Z,101579.72
2022-08-19T10:55:18.223Z,101159.34
2022-08-19T10:58:01.900Z,101214.25
2022-08-19T11:00:29.428Z,101159.69
2022-08-19T11:02:55.922Z,101149.81
2022-08-19T11:05:22.342Z,101183.41
2022-08-19T11:07:51.419Z,101130.44
2022-08-19T11:10:21.376Z,101177.28
2022-08-19T11:12:48.544Z,101126.56
2022-08-19T11:15:15.328Z,101154.03
2022-08-19T11:17:42.758Z,101218.78
2022-08-19T11:20:10.754Z,101247.63
2022-08-19T11:22:41.517Z,101309.28
2022-08-19T11:25:10.193Z,101562.44
2022-08-19T11:27:42.826Z,101646.59
2022-08-19T11:30:12.911Z,101721.91
2022-08-19T11:32:48.508Z,101765.19
2022-08-19T11:35:16.679Z,101770.47
2022-08-19T11:37:43.114Z,101697.59
2022-08-19T11:40:10.677Z,101677.47
2022-08-19T11:42:37.249Z,101640.88
2022-08-19T11:45:04.268Z,101634.88
2022-08-19T11:47:31.034Z,101644.91
2022-08-19T11:49:57.743Z,101648.03
2022-08-19T11:52:24.259Z,101623.88
2022-08-19T11:54:50.749Z,101635.34
2022-08-19T11:57:17.145Z,101635.47
2022-08-19T11:59:49.190Z,101643.34
2022-08-19T12:02:15.668Z,101680.00
2022-08-19T12:04:42.223Z,101719.00
2022-08-19T12:07:08.692Z,101733.50
2022-08-19T12:09:35.168Z,101694.00
2022-08-19T12:12:01.798Z,101671.06
2022-08-19T12:14:28.726Z,101669.13
2022-08-19T12:16:55.139Z,101694.81
2022-08-19T12:19:22.484Z,101720.25
2022-08-19T12:21:49.575Z,101716.72
2022-08-19T12:24:16.146Z,101688.91
2022-08-19T12:26:52.570Z,101713.09
2022-08-19T12:29:23.637Z,101698.41
2022-08-19T12:31:50.710Z,101718.09
2022-08-19T12:34:17.158Z,101718.91
2022-08-19T12:36:43.637Z,101708.16
2022-08-19T12:39:10.736Z,101716.34
2022-08-19T12:41:50.566Z,101681.41
2022-08-19T12:44:21.020Z,101721.81
2022-08-19T12:46:55.559Z,101744.38
2022-08-19T12:49:52.077Z,101721.88
2022-08-19T12:52:09.803Z,101651.72
2022-08-19T12:54:38.330Z,101667.78
2022-08-19T12:57:08.793Z,101688.53
2022-08-19T12:59:36.844Z,101719.97
2022-08-19T13:02:08.408Z,101727.53
2022-08-19T13:04:35.937Z,101736.59
2022-08-19T13:07:02.570Z,101734.59
2022-08-19T13:09:29.251Z,101713.41
2022-08-19T13:11:55.663Z,101729.50
2022-08-19T13:14:22.146Z,101708.00
2022-08-19T13:16:48.580Z,101689.97
2022-08-19T13:19:15.040Z,101691.06
2022-08-19T13:21:41.511Z,101665.63
2022-08-19T13:24:09.283Z,101741.75
2022-08-19T13:26:35.758Z,101767.19
2022-08-19T13:29:02.274Z,101779.91
2022-08-19T13:31:32.846Z,101800.31
2022-08-19T13:33:59.310Z,101763.34
2022-08-19T13:36:26.151Z,101763.66
2022-08-19T13:38:52.689Z,101778.56
2022-08-19T13:41:19.308Z,101757.38
2022-08-19T13:43:45.834Z,101784.81
2022-08-19T13:46:13.386Z,101741.44
2022-08-19T13:48:39.893Z,101723.38
2022-08-19T13:51:06.488Z,101741.81
2022-08-19T13:53:32.981Z,101701.16
2022-08-19T13:55:59.658Z,101714.06
2022-08-19T13:58:26.099Z,101697.72
2022-08-19T14:00:52.639Z,101705.78
2022-08-19T14:03:19.172Z,101730.78
2022-08-19T14:05:45.643Z,101750.59
2022-08-19T14:08:12.118Z,101753.91
2022-08-19T14:10:38.734Z,101753.91
2022-08-19T14:13:05.498Z,101769.47
2022-08-19T14:15:32.768Z,101777.09
2022-08-19T14:17:59.330Z,101779.56
2022-08-19T14:20:26.449Z,101789.94
2022-08-19T14:22:54.328Z,101789.25
2022-08-19T14:25:27.261Z,101799.84
2022-08-19T14:27:54.268Z,101773.19
2022-08-19T14:30:24.330Z,101787.44
2022-08-19T14:32:50.798Z,101773.22
2022-08-19T14:35:17.385Z,101771.53
2022-08-19T14:37:45.690Z,101722.94
2022-08-19T14:40:15.199Z,101722.94
2022-08-19T14:42:42.120Z,101729.63
2022-08-19T14:45:10.055Z,101741.13
2022-08-19T14:47:36.605Z,101719.06
2022-08-19T14:50:18.278Z,101699.50
2022-08-19T14:52:46.324Z,101738.94
2022-08-19T14:55:12.780Z,101733.91
2022-08-19T14:57:41.882Z,101744.63
2022-08-19T15:00:09.615Z,101749.78
2022-08-19T15:02:36.070Z,101749.16
2022-08-19T15:05:03.021Z,101742.00
2022-08-19T15:07:30.146Z,101718.72
2022-08-19T15:09:57.497Z,101703.78
2022-08-19T15:12:24.458Z,101701.53
2022-08-19T15:14:50.952Z,101712.38
2022-08-19T15:17:19.486Z,101722.25
2022-08-19T15:19:46.588Z,101733.63
2022-08-19T15:22:13.141Z,101755.66
2022-08-19T15:24:48.050Z,101760.28
2022-08-19T15:27:14.832Z,101782.59
2022-08-19T15:29:42.014Z,101788.25
2022-08-19T15:32:08.960Z,101789.94
2022-08-19T15:34:35.638Z,101791.06
2022-08-19T15:37:02.520Z,101792.28
2022-08-19T15:39:29.050Z,101778.44
2022-08-19T15:41:55.474Z,101793.59
2022-08-19T15:44:22.069Z,101785.19
2022-08-19T15:46:49.377Z,101782.31
2022-08-19T15:49:18.710Z,101801.00
2022-08-19T15:51:47.468Z,101814.66
2022-08-19T15:54:17.209Z,101766.03
2022-08-19T15:56:44.080Z,101825.44
2022-08-19T15:59:11.691Z,101816.09
2022-08-19T16:01:40.935Z,101825.94
2022-08-19T16:04:13.849Z,101819.84
2022-08-19T16:06:45.424Z,101824.53
2022-08-19T16:09:11.968Z,101834.50
2022-08-19T16:11:39.694Z,101797.88
2022-08-19T16:14:07.257Z,101804.59
2022-08-19T16:16:35.278Z,101799.44
2022-08-19T16:19:05.140Z,101810.53
2022-08-19T16:21:31.815Z,101786.34
2022-08-19T16:23:59.284Z,101795.97
2022-08-19T16:26:27.717Z,101834.78
2022-08-19T16:28:55.532Z,101832.88
2022-08-19T16:31:22.490Z,101850.72
2022-08-19T16:33:49.457Z,101819.78
2022-08-19T16:36:15.972Z,101830.63
2022-08-19T16:38:45.167Z,101846.50
2022-08-19T16:41:12.490Z,101815.13
2022-08-19T16:43:38.937Z,101801.88
2022-08-19T16:46:05.566Z,101786.75
2022-08-19T16:48:32.117Z,101774.66
2022-08-19T16:51:00.305Z,101786.31
2022-08-19T16:53:29.154Z,101772.53
2022-08-19T16:55:59.318Z,101763.47
2022-08-19T16:58:27.950Z,101722.72
2022-08-19T17:00:59.607Z,101694.84
2022-08-19T17:03:36.541Z,101675.44
2022-08-19T17:06:15.848Z,101649.91
2022-08-19T17:08:48.583Z,101627.47
2022-08-19T17:11:18.621Z,101623.19
2022-08-19T17:13:48.020Z,101581.50
2022-08-19T17:16:16.392Z,101503.94
2022-08-19T17:18:42.880Z,101106.63
2022-08-19T17:21:09.544Z,100944.84
2022-08-19T17:23:42.970Z,100997.47
2022-08-19T17:26:16.774Z,101239.97
2022-08-19T17:28:49.109Z,101250.72
2022-08-19T17:31:16.113Z,101234.16
2022-08-19T17:33:42.560Z,101237.19
2022-08-19T17:36:15.251Z,101232.78
2022-08-19T17:38:41.683Z,101235.59
2022-08-19T17:41:08.124Z,101234.66
2022-08-19T17:43:41.351Z,101242.50
2022-08-19T17:46:11.096Z,101259.34
2022-08-19T17:48:37.860Z,101281.22
2022-08-19T17:51:15.923Z,101320.06
2022-08-19T17:53:42.456Z,101341.94
2022-08-19T17:56:09.138Z,101403.28
2022-08-19T17:58:35.626Z,101432.09
2022-08-19T18:01:03.173Z,101470.75
2022-08-19T18:03:30.974Z,101504.50
2022-08-19T18:05:57.440Z,101530.38
2022-08-19T18:08:24.114Z,101545.50
2022-08-19T18:10:50.564Z,101558.25
2022-08-19T18:13:17.590Z,101574.63
2022-08-19T18:15:45.242Z,101582.16
2022-08-19T18:18:15.200Z,101590.31
2022-08-19T18:20:42.494Z,101588.53
2022-08-19T18:23:43.804Z,101594.66
2022-08-19T18:25:55.518Z,101600.69
2022-08-19T18:28:21.969Z,101605.91
2022-08-19T18:30:48.426Z,101611.44
2022-08-19T18:33:15.948Z,101616.09
2022-08-19T18:35:45.677Z,101626.75
2022-08-19T18:38:14.856Z,101631.16
2022-08-19T18:40:41.336Z,101636.28
2022-08-19T18:43:09.070Z,101628.59
2022-08-19T18:45:35.541Z,101636.97
2022-08-19T18:48:01.986Z,101628.59
2022-08-19T18:50:29.093Z,101627.97
2022-08-19T18:52:55.530Z,101629.69
2022-08-19T18:55:21.908Z,101629.69
2022-08-19T18:57:48.406Z,101626.84
2022-08-19T19:00:18.590Z,101632.66
2022-08-19T19:02:45.089Z,101631.88
2022-08-19T19:05:14.546Z,101631.69
2022-08-19T19:07:41.616Z,101626.13
2022-08-19T19:10:08.918Z,101633.38
2022-08-19T19:12:39.542Z,101634.03
2022-08-19T19:15:06.725Z,101638.78
2022-08-19T19:17:33.170Z,101627.28
2022-08-19T19:19:59.783Z,101634.03
2022-08-19T19:22:26.382Z,101640.41
2022-08-19T19:24:53.082Z,101640.28
2022-08-19T19:27:20.207Z,101632.69
2022-08-19T19:29:51.759Z,101632.16
2022-08-19T19:32:28.308Z,101639.47
2022-08-19T19:34:55.340Z,101637.75
2022-08-19T19:37:21.823Z,101642.63
2022-08-19T19:39:49.014Z,101638.56
2022-08-19T19:42:19.951Z,101636.84
2022-08-19T19:44:52.631Z,101638.06
2022-08-19T19:47:19.698Z,101645.47
2022-08-19T19:50:12.843Z,101642.03
2022-08-19T19:52:37.858Z,101643.06
2022-08-19T19:55:05.250Z,101650.00
2022-08-19T19:57:31.752Z,101648.84
2022-08-19T19:59:58.263Z,101653.00
2022-08-19T20:02:24.714Z,101657.63
2022-08-19T20:04:51.224Z,101656.88
2022-08-19T20:07:17.752Z,101668.13
2022-08-19T20:09:59.215Z,101663.38
2022-08-19T20:12:26.721Z,101677.59
2022-08-19T20:14:53.205Z,101670.00
2022-08-19T20:17:19.648Z,101665.25
2022-08-19T20:19:46.112Z,101657.63
2022-08-19T20:22:12.558Z,101650.31
2022-08-19T20:24:39.007Z,101650.53
2022-08-19T20:27:05.754Z,101652.19
2022-08-19T20:29:39.078Z,101650.84
2022-08-19T20:32:09.929Z,101662.50
2022-08-19T20:34:36.618Z,101655.00
2022-08-19T20:37:03.245Z,101677.63
2022-08-19T20:39:29.645Z,101672.06
2022-08-19T20:41:56.208Z,101659.31
2022-08-19T20:44:22.696Z,101672.81
2022-08-19T20:46:54.465Z,101674.53
2022-08-19T20:49:27.515Z,101678.19
2022-08-19T20:51:57.776Z,101707.31
2022-08-19T20:54:24.817Z,101712.00
2022-08-19T20:56:51.380Z,101717.50
2022-08-19T20:59:17.994Z,101728.19
2022-08-19T21:01:44.569Z,101750.31
2022-08-19T21:04:11.052Z,101759.13
2022-08-19T21:06:37.902Z,101752.06
2022-08-19T21:09:05.087Z,101750.94
2022-08-19T21:11:31.845Z,101742.72
2022-08-19T21:13:59.392Z,101743.00
2022-08-19T21:16:26.758Z,101735.19
2022-08-19T21:18:53.155Z,101735.19
2022-08-19T21:21:19.674Z,101735.56
2022-08-19T21:23:49.482Z,101734.63
2022-08-19T21:26:16.187Z,101730.88
2022-08-19T21:28:42.718Z,101724.16
2022-08-19T21:31:09.964Z,101725.03
2022-08-19T21:33:37.547Z,101720.16
2022-08-19T21:36:05.014Z,101720.34
2022-08-19T21:38:31.611Z,101719.78
2022-08-19T21:40:58.584Z,101726.41
2022-08-19T21:43:25.394Z,101725.19
2022-08-19T21:45:51.860Z,101703.16
2022-08-19T21:48:19.012Z,101694.56
2022-08-19T21:50:48.665Z,101685.03
2022-08-19T21:53:19.254Z,101692.75
2022-08-19T21:55:53.500Z,101690.94
2022-08-19T21:58:28.783Z,101688.06
2022-08-19T22:01:01.531Z,101693.59
2022-08-19T22:03:28.810Z,101708.41
2022-08-19T22:05:58.105Z,101712.44
2022-08-19T22:08:25.845Z,101709.09
2022-08-19T22:15:47.330Z,101720.09
2022-08-19T22:18:13.849Z,101709.09
2022-08-19T22:20:40.503Z,101710.75
2022-08-19T22:23:07.404Z,101709.78
2022-08-19T22:25:40.069Z,101714.72
2022-08-19T22:28:10.963Z,101715.38
2022-08-19T22:30:41.168Z,101705.16
2022-08-19T22:33:11.393Z,101704.22
2022-08-19T22:35:39.779Z,101706.50
2022-08-19T22:38:07.609Z,101707.22
2022-08-19T22:43:06.641Z,101705.56
2022-08-19T22:45:35.180Z,101711.69
2022-08-19T22:48:02.914Z,101721.03
2022-08-19T22:50:29.497Z,101725.22
2022-08-19T22:53:00.479Z,101728.88
2022-08-19T22:55:28.284Z,101738.22
2022-08-19T22:57:55.618Z,101741.19
2022-08-19T23:00:24.615Z,101745.88
2022-08-19T23:02:52.276Z,101740.72
2022-08-19T23:05:22.174Z,101752.56
2022-08-19T23:07:52.107Z,101750.84
2022-08-19T23:10:27.276Z,101760.00
2022-08-19T23:12:57.463Z,101764.94
2022-08-19T23:15:26.576Z,101775.03
2022-08-19T23:17:55.446Z,101778.41
2022-08-19T23:20:23.542Z,101771.63
2022-08-19T23:22:49.997Z,101772.06
2022-08-19T23:25:21.283Z,101779.78
2022-08-19T23:27:48.822Z,101773.13
2022-08-19T23:30:15.327Z,101758.84
2022-08-19T23:32:41.783Z,101756.19
2022-08-19T23:35:08.605Z,101756.19
2022-08-19T23:37:37.157Z,101752.94
2022-08-19T23:40:06.398Z,101763.53
2022-08-19T23:42:33.123Z,101757.16
2022-08-19T23:45:01.965Z,101756.09
2022-08-19T23:47:30.329Z,101752.31
2022-08-19T23:49:56.789Z,101750.97
2022-08-19T23:52:23.297Z,101757.16
2022-08-19T23:54:49.817Z,101756.44
2022-08-19T23:57:16.350Z,101745.97
2022-08-19T23:59:43.409Z,101758.78
